createdAt,value
2022-09-07T00:00:56.649Z,95088.41
2022-09-07T00:03:24.925Z,95093.88
2022-09-07T00:05:53.746Z,95101.00
2022-09-07T00:08:23.702Z,95092.44
2022-09-07T00:10:56.695Z,95097.50
2022-09-07T00:13:26.197Z,95097.25
2022-09-07T00:15:55.654Z,95094.13
2022-09-07T00:18:23.851Z,95092.00
2022-09-07T00:20:59.065Z,95092.56
2022-09-07T00:23:28.533Z,95098.66
2022-09-07T00:26:00.668Z,95093.34
2022-09-07T00:28:28.793Z,95089.19
2022-09-07T00:30:58.248Z,95091.53
2022-09-07T00:33:26.485Z,95090.31
2022-09-07T00:35:54.713Z,95083.16
2022-09-07T00:38:22.720Z,95098.56
2022-09-07T00:40:50.595Z,95092.56
2022-09-07T00:43:30.695Z,95102.16
2022-09-07T00:46:00.015Z,95111.56
2022-09-07T00:48:33.103Z,95109.84
2022-09-07T00:51:06.467Z,95108.03
2022-09-07T00:53:38.213Z,95098.53
2022-09-07T00:56:07.318Z,95096.66
2022-09-07T00:58:37.919Z,95102.19
2022-09-07T01:01:07.771Z,95101.69
2022-09-07T01:03:41.747Z,95097.28
2022-09-07T01:06:16.458Z,95090.91
2022-09-07T01:08:44.654Z,95107.34
2022-09-07T01:11:13.495Z,95093.91
2022-09-07T01:13:43.808Z,95112.38
2022-09-07T01:16:19.381Z,95096.94
2022-09-07T01:18:58.916Z,95106.63
2022-09-07T01:21:30.294Z,95117.28
2022-09-07T01:24:38.871Z,95107.28
2022-09-07T01:27:52.838Z,95112.94
2022-09-07T01:30:23.134Z,95109.75
2022-09-07T01:33:09.176Z,95120.75
2022-09-07T01:35:49.020Z,95116.00
2022-09-07T01:38:23.326Z,95110.38
2022-09-07T01:40:58.351Z,95111.16
2022-09-07T01:43:34.744Z,95107.00
2022-09-07T01:46:07.744Z,95104.88
2022-09-07T01:48:39.028Z,95106.81
2022-09-07T01:51:13.159Z,95117.94
2022-09-07T01:53:46.119Z,95113.13
2022-09-07T01:56:17.868Z,95116.63
2022-09-07T01:58:54.439Z,95111.03
2022-09-07T02:01:27.036Z,95114.41
2022-09-07T02:04:01.563Z,95119.47
2022-09-07T02:06:38.382Z,95114.63
2022-09-07T02:09:11.017Z,95122.22
2022-09-07T02:11:42.190Z,95109.84
2022-09-07T02:14:16.826Z,95126.56
2022-09-07T02:16:51.771Z,95118.22
2022-09-07T02:19:22.541Z,95127.16
2022-09-07T02:21:57.252Z,95130.66
2022-09-07T02:24:29.597Z,95116.72
2022-09-07T02:26:59.971Z,95112.34
2022-09-07T02:29:31.052Z,95105.22
2022-09-07T02:31:59.223Z,95098.81
2022-09-07T02:34:27.278Z,95097.28
2022-09-07T02:36:56.592Z,95093.72
2022-09-07T02:39:24.651Z,95096.25
2022-09-07T02:41:52.595Z,95098.59
2022-09-07T02:44:22.498Z,95086.69
2022-09-07T02:47:01.836Z,95094.06
2022-09-07T02:49:46.408Z,95092.31
2022-09-07T02:52:24.676Z,95094.19
2022-09-07T02:55:04.713Z,95098.34
2022-09-07T02:57:47.867Z,95084.84
2022-09-07T03:00:20.862Z,95091.53
2022-09-07T03:03:01.927Z,95090.84
2022-09-07T03:05:41.169Z,95087.66
2022-09-07T03:08:13.487Z,95081.69
2022-09-07T03:10:42.605Z,95091.06
2022-09-07T03:13:20.193Z,95087.44
2022-09-07T03:15:50.431Z,95098.03
2022-09-07T03:18:23.725Z,95096.66
2022-09-07T03:20:51.778Z,95094.91
2022-09-07T03:23:20.175Z,95085.34
2022-09-07T03:25:48.944Z,95094.22
2022-09-07T03:28:17.524Z,95101.78
2022-09-07T03:30:47.341Z,95101.53
2022-09-07T03:33:16.140Z,95100.03
2022-09-07T03:35:46.003Z,95089.88
2022-09-07T03:38:14.342Z,95097.84
2022-09-07T03:40:42.312Z,95091.63
2022-09-07T03:43:10.493Z,95096.03
2022-09-07T03:45:38.468Z,95092.97
2022-09-07T03:48:06.546Z,95090.06
2022-09-07T03:50:34.560Z,95103.09
2022-09-07T03:53:03.912Z,95096.59
2022-09-07T03:55:31.898Z,95091.00
2022-09-07T03:57:59.831Z,95095.94
2022-09-07T04:00:27.882Z,95101.97
2022-09-07T04:02:56.169Z,95103.59
2022-09-07T04:05:24.312Z,95105.34
2022-09-07T04:07:52.534Z,95095.97
2022-09-07T04:10:22.015Z,95099.88
2022-09-07T04:12:50.572Z,95098.44
2022-09-07T04:15:18.568Z,95094.72
2022-09-07T04:17:46.761Z,95099.19
2022-09-07T04:20:14.933Z,95098.25
2022-09-07T04:22:43.214Z,95100.44
2022-09-07T04:25:11.174Z,95101.66
2022-09-07T04:27:40.665Z,95100.09
2022-09-07T04:30:10.657Z,95111.41
2022-09-07T04:32:38.874Z,95117.19
2022-09-07T04:35:08.227Z,95118.53
2022-09-07T04:37:36.218Z,95112.09
2022-09-07T04:40:04.751Z,95104.41
2022-09-07T04:42:32.785Z,95110.75
2022-09-07T04:45:02.135Z,95113.13
2022-09-07T04:47:30.717Z,95112.66
2022-09-07T04:49:58.778Z,95108.13
2022-09-07T04:52:26.776Z,95112.28
2022-09-07T04:54:54.705Z,95115.97
2022-09-07T04:57:25.823Z,95124.06
2022-09-07T04:59:55.003Z,95127.41
2022-09-07T05:02:24.368Z,95127.03
2022-09-07T05:04:52.479Z,95126.84
2022-09-07T05:07:20.396Z,95124.56
2022-09-07T05:09:48.705Z,95115.81
2022-09-07T05:12:16.643Z,95122.09
2022-09-07T05:14:44.690Z,95125.59
2022-09-07T05:17:12.639Z,95143.94
2022-09-07T05:19:41.913Z,95144.56
2022-09-07T05:22:10.023Z,95134.44
2022-09-07T05:24:38.060Z,95136.00
2022-09-07T05:27:06.337Z,95133.91
2022-09-07T05:32:22.296Z,95145.56
2022-09-07T05:34:53.067Z,95149.75
2022-09-07T05:37:21.177Z,95150.88
2022-09-07T05:39:49.217Z,95157.47
2022-09-07T05:42:17.479Z,95168.63
2022-09-07T05:44:45.885Z,95171.88
2022-09-07T05:47:14.308Z,95171.56
2022-09-07T05:49:42.575Z,95175.13
2022-09-07T05:52:11.997Z,95173.88
2022-09-07T05:54:40.431Z,95181.75
2022-09-07T05:57:08.586Z,95181.56
2022-09-07T05:59:36.527Z,95179.91
2022-09-07T06:02:04.850Z,95185.94
2022-09-07T06:04:33.018Z,95190.72
2022-09-07T06:12:38.497Z,95204.13
2022-09-07T06:15:07.394Z,95190.78
2022-09-07T06:17:35.378Z,95194.59
2022-09-07T06:20:04.544Z,95196.59
2022-09-07T06:22:32.609Z,95198.84
2022-09-07T06:25:01.918Z,95204.16
2022-09-07T06:27:30.293Z,95224.28
2022-09-07T06:29:58.356Z,95218.50
2022-09-07T06:35:10.693Z,95228.81
2022-09-07T06:37:38.962Z,95236.50
2022-09-07T06:40:10.627Z,95230.41
2022-09-07T06:42:38.996Z,95220.16
2022-09-07T06:45:07.826Z,95234.75
2022-09-07T06:47:35.851Z,95223.06
2022-09-07T06:50:03.931Z,95241.91
2022-09-07T06:55:21.196Z,95245.25
2022-09-07T06:57:49.296Z,95239.63
2022-09-07T07:00:17.687Z,95245.69
2022-09-07T07:02:45.590Z,95249.94
2022-09-07T07:05:13.569Z,95255.03
2022-09-07T07:07:41.550Z,95254.84
2022-09-07T07:10:10.824Z,95261.66
2022-09-07T07:15:08.909Z,95266.91
2022-09-07T07:17:37.376Z,95269.00
2022-09-07T07:20:06.330Z,95269.81
2022-09-07T07:22:49.701Z,95275.88
2022-09-07T07:25:17.887Z,95274.88
2022-09-07T07:27:47.328Z,95284.25
2022-09-07T07:30:16.021Z,95279.53
2022-09-07T07:32:45.197Z,95286.31
2022-09-07T07:35:14.099Z,95295.22
2022-09-07T07:37:42.125Z,95276.94
2022-09-07T07:42:42.905Z,95298.31
2022-09-07T07:48:00.970Z,95282.38
2022-09-07T07:50:30.995Z,95297.22
2022-09-07T07:55:47.909Z,95282.63
2022-09-07T07:58:15.771Z,95283.91
2022-09-07T08:01:00.727Z,95287.31
2022-09-07T08:03:29.211Z,95289.16
2022-09-07T08:05:57.244Z,95292.06
2022-09-07T08:08:25.551Z,95288.16
2022-09-07T08:10:53.618Z,95285.28
2022-09-07T08:13:25.115Z,95296.25
2022-09-07T08:15:59.339Z,95296.25
2022-09-07T08:18:27.579Z,95285.25
2022-09-07T08:20:55.811Z,95276.13
2022-09-07T08:23:23.637Z,95282.09
2022-09-07T08:25:52.552Z,95281.63
2022-09-07T08:28:20.746Z,95288.09
2022-09-07T08:30:48.940Z,95275.00
2022-09-07T08:33:18.317Z,95279.41
2022-09-07T08:35:56.472Z,95270.41
2022-09-07T08:38:24.697Z,95276.19
2022-09-07T08:40:53.243Z,95275.84
2022-09-07T08:43:32.413Z,95269.97
2022-09-07T08:46:07.425Z,95267.84
2022-09-07T08:48:36.747Z,95261.13
2022-09-07T08:51:12.899Z,95265.81
2022-09-07T08:53:46.590Z,95270.22
2022-09-07T08:56:22.952Z,95257.94
2022-09-07T08:58:53.223Z,95265.63
2022-09-07T09:01:38.786Z,95269.84
2022-09-07T09:04:16.549Z,95254.91
2022-09-07T09:07:02.442Z,95260.31
2022-09-07T09:09:41.059Z,95254.59
2022-09-07T09:12:19.717Z,95259.81
2022-09-07T09:15:00.056Z,95256.25
2022-09-07T09:17:35.732Z,95260.38
2022-09-07T09:20:16.886Z,95255.50
2022-09-07T09:22:45.577Z,95266.03
2022-09-07T09:25:20.795Z,95251.72
2022-09-07T09:27:49.005Z,95246.38
2022-09-07T09:30:19.098Z,95246.91
2022-09-07T09:32:48.391Z,95248.44
2022-09-07T09:35:23.982Z,95242.78
2022-09-07T09:37:51.765Z,95241.09
2022-09-07T09:40:23.114Z,95239.75
2022-09-07T09:43:03.456Z,95244.88
2022-09-07T09:48:32.662Z,95250.09
2022-09-07T09:53:57.080Z,95245.16
2022-09-07T09:56:38.119Z,95239.38
2022-09-07T10:05:27.143Z,95246.91
2022-09-07T10:07:57.482Z,95240.94
2022-09-07T10:10:27.327Z,95243.72
2022-09-07T10:12:56.722Z,95237.94
2022-09-07T10:15:40.186Z,95240.44
2022-09-07T10:18:21.152Z,95236.78
2022-09-07T10:20:49.086Z,95234.84
2022-09-07T10:23:25.778Z,95235.69
2022-09-07T10:25:53.695Z,95248.63
2022-09-07T10:28:23.900Z,95248.19
2022-09-07T10:31:13.922Z,95247.19
2022-09-07T10:36:45.829Z,95240.91
2022-09-07T10:39:19.102Z,95244.22
2022-09-07T10:41:54.298Z,95237.34
2022-09-07T10:44:34.365Z,95236.09
2022-09-07T10:47:07.912Z,95228.44
2022-09-07T10:50:21.926Z,95220.78
2022-09-07T10:52:44.345Z,95218.09
2022-09-07T10:55:19.700Z,95214.22
2022-09-07T10:57:58.907Z,95209.47
2022-09-07T11:00:31.133Z,95201.31
2022-09-07T11:03:28.170Z,95195.19
2022-09-07T11:06:06.346Z,95202.03
2022-09-07T11:12:01.102Z,95191.09
2022-09-07T11:14:32.802Z,95179.13
2022-09-07T11:17:02.984Z,95182.13
2022-09-07T11:19:36.161Z,95182.88
2022-09-07T11:22:16.079Z,95180.13
2022-09-07T11:27:45.260Z,95165.66
2022-09-07T11:30:24.686Z,95163.09
2022-09-07T11:33:02.804Z,95164.22
2022-09-07T11:35:43.965Z,95156.38
2022-09-07T11:38:20.415Z,95167.19
2022-09-07T11:41:00.579Z,95162.00
2022-09-07T11:43:32.677Z,95151.44
2022-09-07T11:46:05.857Z,95156.41
2022-09-07T11:48:38.911Z,95154.50
2022-09-07T11:51:14.284Z,95157.03
2022-09-07T11:53:46.372Z,95143.31
2022-09-07T11:56:19.100Z,95158.97
2022-09-07T11:59:01.940Z,95154.41
2022-09-07T12:01:41.069Z,95151.59
2022-09-07T12:04:47.375Z,95149.03
2022-09-07T12:07:51.952Z,95141.03
2022-09-07T12:10:40.886Z,95146.00
2022-09-07T12:13:33.968Z,95133.03
2022-09-07T12:16:07.107Z,95137.28
2022-09-07T12:19:10.950Z,95133.81
2022-09-07T12:21:42.804Z,95134.00
2022-09-07T12:24:39.113Z,95128.41
2022-09-07T12:27:27.812Z,95128.78
2022-09-07T12:30:30.207Z,95125.59
2022-09-07T12:33:06.062Z,95125.03
2022-09-07T12:35:40.991Z,95116.63
2022-09-07T12:38:42.218Z,95121.25
2022-09-07T12:41:23.250Z,95111.50
2022-09-07T12:44:08.130Z,95117.34
2022-09-07T12:47:00.364Z,95103.31
2022-09-07T12:49:43.639Z,95096.00
2022-09-07T12:52:35.315Z,95102.88
2022-09-07T12:55:27.551Z,95100.22
2022-09-07T12:58:05.308Z,95104.97
2022-09-07T13:00:50.468Z,95102.28
2022-09-07T13:03:54.078Z,95088.06
2022-09-07T13:09:31.924Z,95080.31
2022-09-07T13:12:01.457Z,95074.25
2022-09-07T13:14:30.303Z,95073.47
2022-09-07T13:17:43.693Z,95067.41
2022-09-07T13:20:34.836Z,95072.25
2022-09-07T13:23:21.224Z,95065.72
2022-09-07T13:25:51.562Z,95069.81
2022-09-07T13:28:28.285Z,95061.00
2022-09-07T13:31:21.888Z,95066.19
2022-09-07T13:33:50.973Z,95053.25
2022-09-07T13:36:37.720Z,95057.16
2022-09-07T13:39:13.564Z,95060.25
2022-09-07T13:41:47.221Z,95052.69
2022-09-07T13:44:25.811Z,95045.81
2022-09-07T13:47:19.927Z,95043.31
2022-09-07T13:50:05.242Z,95050.19
2022-09-07T13:52:47.246Z,95047.53
2022-09-07T13:55:27.846Z,95034.34
2022-09-07T13:58:08.158Z,95033.69
2022-09-07T14:00:36.187Z,95035.56
2022-09-07T14:03:08.021Z,95027.19
2022-09-07T14:05:36.238Z,95031.53
2022-09-07T14:08:04.249Z,95018.16
2022-09-07T14:10:33.645Z,95022.84
2022-09-07T14:13:08.171Z,95016.63
2022-09-07T14:15:39.325Z,95017.41
2022-09-07T14:18:12.702Z,95010.44
2022-09-07T14:20:44.572Z,95010.72
2022-09-07T14:23:21.121Z,95009.91
2022-09-07T14:26:20.256Z,95005.63
2022-09-07T14:28:50.226Z,95007.00
2022-09-07T14:31:21.016Z,95003.59
2022-09-07T14:33:52.705Z,95008.72
2022-09-07T14:36:42.384Z,95000.97
2022-09-07T14:39:13.161Z,95010.28
2022-09-07T14:41:43.315Z,95004.50
2022-09-07T14:44:30.243Z,95004.38
2022-09-07T14:47:00.923Z,95000.03
2022-09-07T14:49:29.025Z,94998.47
2022-09-07T14:51:56.997Z,94992.84
2022-09-07T14:54:28.632Z,94990.47
2022-09-07T14:57:04.725Z,94988.75
2022-09-07T14:59:42.138Z,94990.03
2022-09-07T15:02:35.138Z,94986.22
2022-09-07T15:05:27.988Z,94984.69
2022-09-07T15:07:57.801Z,94984.50
2022-09-07T15:10:32.821Z,94990.56
2022-09-07T15:16:27.444Z,94973.16
2022-09-07T15:18:57.655Z,94982.31
2022-09-07T15:21:27.112Z,94978.50
2022-09-07T15:24:00.243Z,94981.81
2022-09-07T15:29:30.022Z,94969.22
2022-09-07T15:32:12.238Z,94969.97
2022-09-07T15:34:44.275Z,94967.25
2022-09-07T15:40:04.569Z,94959.97
2022-09-07T15:45:23.117Z,94945.47
2022-09-07T15:47:56.377Z,94942.22
2022-09-07T15:50:27.635Z,94951.00
2022-09-07T15:53:00.859Z,94939.09
2022-09-07T15:55:29.152Z,94943.66
2022-09-07T15:58:11.027Z,94940.09
2022-09-07T16:00:42.799Z,94934.69
2022-09-07T16:03:18.211Z,94927.72
2022-09-07T16:05:46.441Z,94933.09
2022-09-07T16:08:25.113Z,94927.50
2022-09-07T16:10:55.139Z,94927.53
2022-09-07T16:13:24.782Z,94924.28
2022-09-07T16:15:52.831Z,94920.88
2022-09-07T16:18:24.650Z,94917.00
2022-09-07T16:20:57.136Z,94919.78
2022-09-07T16:23:25.044Z,94915.88
2022-09-07T16:26:00.406Z,94900.03
2022-09-07T16:28:29.353Z,94884.50
2022-09-07T16:31:00.412Z,94913.41
2022-09-07T16:33:36.712Z,94918.84
2022-09-07T16:36:09.551Z,94914.28
2022-09-07T16:38:47.291Z,94918.09
2022-09-07T16:41:20.777Z,94912.25
2022-09-07T16:43:51.363Z,94899.19
2022-09-07T16:46:21.663Z,94898.94
2022-09-07T16:48:51.870Z,94908.56
2022-09-07T16:51:26.040Z,94883.13
2022-09-07T16:53:56.170Z,94876.38
2022-09-07T16:56:26.967Z,94883.41
2022-09-07T16:58:57.506Z,94875.19
2022-09-07T17:01:27.826Z,94868.25
2022-09-07T17:03:57.911Z,94872.53
2022-09-07T17:06:33.641Z,94865.13
2022-09-07T17:09:01.625Z,94876.75
2022-09-07T17:11:31.451Z,94876.59
2022-09-07T17:14:04.984Z,94871.63
2022-09-07T17:16:34.911Z,94870.72
2022-09-07T17:21:55.485Z,94873.88
2022-09-07T17:24:25.327Z,94881.63
2022-09-07T17:26:55.779Z,94879.44
2022-09-07T17:29:23.647Z,94881.75
2022-09-07T17:34:40.720Z,94875.34
2022-09-07T17:37:09.349Z,94879.34
2022-09-07T17:39:38.692Z,94882.81
2022-09-07T17:42:09.747Z,94869.22
2022-09-07T17:44:38.471Z,94866.91
2022-09-07T17:47:06.843Z,94872.00
2022-09-07T17:49:34.829Z,94866.97
2022-09-07T17:52:04.991Z,94874.31
2022-09-07T17:54:32.983Z,94868.69
2022-09-07T17:57:01.304Z,94871.34
2022-09-07T18:02:17.317Z,94878.03
2022-09-07T18:04:45.183Z,94873.63
2022-09-07T18:07:15.577Z,94873.72
2022-09-07T18:09:43.737Z,94874.31
2022-09-07T18:12:11.715Z,94869.13
2022-09-07T18:14:41.629Z,94861.13
2022-09-07T18:17:09.730Z,94863.84
2022-09-07T18:19:38.551Z,94847.69
2022-09-07T18:22:08.642Z,94842.34
2022-09-07T18:24:39.610Z,94846.22
2022-09-07T18:27:07.852Z,94847.31
2022-09-07T18:29:35.797Z,94846.63
2022-09-07T18:32:08.725Z,94850.31
2022-09-07T18:34:37.606Z,94853.47
2022-09-07T18:37:06.021Z,94849.34
2022-09-07T18:39:35.485Z,94850.91
2022-09-07T18:42:05.324Z,94851.97
2022-09-07T18:47:27.879Z,94852.41
2022-09-07T18:49:56.595Z,94860.84
2022-09-07T18:55:12.495Z,94852.59
2022-09-07T18:57:41.635Z,94829.72
2022-09-07T19:00:16.156Z,94834.47
2022-09-07T19:02:47.497Z,94841.53
2022-09-07T19:08:04.301Z,94854.03
2022-09-07T19:10:35.783Z,94851.16
2022-09-07T19:13:05.508Z,94860.56
2022-09-07T19:15:37.489Z,94854.31
2022-09-07T19:18:06.597Z,94862.16
2022-09-07T19:20:35.451Z,94846.50
2022-09-07T19:23:03.316Z,94846.75
2022-09-07T19:25:31.148Z,94852.47
2022-09-07T19:27:58.891Z,94848.84
2022-09-07T19:30:28.275Z,94859.34
2022-09-07T19:32:57.817Z,94855.50
2022-09-07T19:35:28.847Z,94845.09
2022-09-07T19:37:56.769Z,94848.75
2022-09-07T19:40:25.055Z,94839.63
2022-09-07T19:42:52.885Z,94838.59
2022-09-07T19:45:20.684Z,94833.13
2022-09-07T19:47:50.658Z,94837.25
2022-09-07T19:50:19.440Z,94837.50
2022-09-07T19:52:47.567Z,94837.28
2022-09-07T19:55:15.385Z,94826.88
2022-09-07T19:57:46.456Z,94824.53
2022-09-07T20:00:15.289Z,94820.88
2022-09-07T20:02:43.303Z,94824.81
2022-09-07T20:05:14.598Z,94816.50
2022-09-07T20:07:42.401Z,94812.59
2022-09-07T20:10:10.444Z,94804.03
2022-09-07T20:12:38.441Z,94798.56
2022-09-07T20:15:06.999Z,94789.97
2022-09-07T20:17:35.589Z,94789.44
2022-09-07T20:20:04.411Z,94783.47
2022-09-07T20:22:33.630Z,94789.69
2022-09-07T20:25:01.451Z,94789.47
2022-09-07T20:27:30.501Z,94787.63
2022-09-07T20:29:58.260Z,94793.09
2022-09-07T20:32:28.154Z,94785.25
2022-09-07T20:34:56.410Z,94784.47
2022-09-07T20:37:27.231Z,94768.06
2022-09-07T20:39:56.543Z,94770.44
2022-09-07T20:42:24.425Z,94764.72
2022-09-07T20:44:53.436Z,94758.75
2022-09-07T20:47:21.170Z,94764.44
2022-09-07T20:49:49.336Z,94753.53
2022-09-07T20:52:17.072Z,94749.13
2022-09-07T20:54:44.763Z,94746.53
2022-09-07T20:57:14.100Z,94743.09
2022-09-07T20:59:41.842Z,94746.53
2022-09-07T21:02:10.666Z,94745.75
2022-09-07T21:04:38.547Z,94739.47
2022-09-07T21:07:06.272Z,94735.03
2022-09-07T21:09:33.976Z,94730.09
2022-09-07T21:12:01.675Z,94726.41
2022-09-07T21:14:30.781Z,94726.66
2022-09-07T21:16:58.737Z,94713.38
2022-09-07T21:19:26.472Z,94711.81
2022-09-07T21:21:54.240Z,94711.75
2022-09-07T21:24:23.946Z,94718.75
2022-09-07T21:26:52.137Z,94702.84
2022-09-07T21:29:22.857Z,94698.97
2022-09-07T21:31:53.735Z,94691.16
2022-09-07T21:34:22.513Z,94682.81
2022-09-07T21:36:50.669Z,94692.97
2022-09-07T21:39:19.222Z,94686.47
2022-09-07T21:41:46.948Z,94692.22
2022-09-07T21:44:16.759Z,94695.06
2022-09-07T21:46:44.743Z,94688.56
2022-09-07T21:49:13.876Z,94695.59
2022-09-07T21:51:41.637Z,94692.44
2022-09-07T21:54:09.770Z,94693.25
2022-09-07T21:56:37.613Z,94696.09
2022-09-07T21:59:06.225Z,94697.91
2022-09-07T22:01:34.069Z,94700.19
2022-09-07T22:04:03.745Z,94706.72
2022-09-07T22:06:33.455Z,94708.53
2022-09-07T22:09:02.069Z,94714.25
2022-09-07T22:11:30.573Z,94712.16
2022-09-07T22:14:00.533Z,94711.03
2022-09-07T22:16:28.837Z,94717.88
2022-09-07T22:18:57.435Z,94721.28
2022-09-07T22:21:27.053Z,94740.38
2022-09-07T22:23:58.768Z,94751.88
2022-09-07T22:26:28.936Z,94754.25
2022-09-07T22:28:56.816Z,94751.13
2022-09-07T22:31:25.997Z,94745.91
2022-09-07T22:33:56.673Z,94761.75
2022-09-07T22:36:26.796Z,94754.88
2022-09-07T22:38:57.388Z,94771.22
2022-09-07T22:41:27.043Z,94772.41
2022-09-07T22:43:55.988Z,94782.25
2022-09-07T22:46:26.578Z,94785.41
2022-09-07T22:48:55.164Z,94791.69
2022-09-07T22:51:25.237Z,94787.28
2022-09-07T22:53:53.745Z,94779.00
2022-09-07T22:56:25.124Z,94766.28
2022-09-07T22:58:55.044Z,94771.88
2022-09-07T23:01:23.603Z,94760.97
2022-09-07T23:03:51.922Z,94768.78
2022-09-07T23:06:27.963Z,94766.22
2022-09-07T23:08:57.599Z,94758.97
2022-09-07T23:11:27.899Z,94758.19
2022-09-07T23:13:57.853Z,94760.53
2022-09-07T23:16:27.338Z,94759.47
2022-09-07T23:18:55.900Z,94752.16
2022-09-07T23:21:23.750Z,94746.41
2022-09-07T23:23:52.340Z,94723.44
2022-09-07T23:26:20.674Z,94718.19
2022-09-07T23:28:53.602Z,94704.88
2022-09-07T23:31:21.625Z,94698.34
2022-09-07T23:33:50.146Z,94683.50
2022-09-07T23:36:18.937Z,94688.38
2022-09-07T23:38:47.437Z,94695.59
2022-09-07T23:41:15.657Z,94702.06
2022-09-07T23:43:44.023Z,94694.03
2022-09-07T23:46:14.492Z,94713.53
2022-09-07T23:48:44.562Z,94733.31
2022-09-07T23:51:12.853Z,94748.59
2022-09-07T23:53:40.906Z,94733.81
2022-09-07T23:56:09.208Z,94730.19
2022-09-07T23:58:36.900Z,94726.03
